createdAt,value
2023-02-19T00:00:48.110Z,51.212097
2023-02-19T00:01:48.140Z,51.212112
2023-02-19T00:02:48.098Z,51.212093
2023-02-19T00:03:48.215Z,51.211983
2023-02-19T00:04:48.130Z,51.212116
2023-02-19T00:05:48.088Z,51.212132
2023-02-19T00:06:48.062Z,51.211803
2023-02-19T00:07:48.095Z,51.211926
2023-02-19T00:08:48.101Z,51.212276
2023-02-19T00:09:48.024Z,51.212234
2023-02-19T00:10:50.318Z,51.212219
2023-02-19T00:11:48.172Z,51.212132
2023-02-19T00:12:48.052Z,51.212013
2023-02-19T00:13:48.057Z,51.211967
2023-02-19T00:14:48.108Z,51.212055
2023-02-19T00:15:48.637Z,51.212223
2023-02-19T00:16:48.005Z,51.212196
2023-02-19T00:17:49.148Z,51.212276
2023-02-19T00:18:48.029Z,51.212337
2023-02-19T00:19:48.197Z,51.212257
2023-02-19T00:20:48.981Z,51.212238
2023-02-19T00:21:48.156Z,51.212254
2023-02-19T00:22:48.511Z,51.212337
2023-02-19T00:23:47.976Z,51.212246
2023-02-19T00:24:49.319Z,51.212246
2023-02-19T00:25:49.056Z,51.212212
2023-02-19T00:26:48.009Z,51.212311
2023-02-19T00:27:48.613Z,51.212280
2023-02-19T00:28:47.896Z,51.212193
2023-02-19T00:29:48.516Z,51.212154
2023-02-19T00:30:47.931Z,51.212143
2023-02-19T00:31:48.243Z,51.212242
2023-02-19T00:32:47.905Z,51.212059
2023-02-19T00:33:48.011Z,51.212067
2023-02-19T00:34:48.011Z,51.212067
2023-02-19T00:35:47.869Z,51.212124
2023-02-19T00:36:48.692Z,51.212166
2023-02-19T00:37:47.905Z,51.212185
2023-02-19T00:38:48.552Z,51.212166
2023-02-19T00:39:47.816Z,51.212200
2023-02-19T00:40:48.616Z,51.212242
2023-02-19T00:41:48.612Z,51.212288
2023-02-19T00:42:47.853Z,51.212334
2023-02-19T00:43:48.009Z,51.212315
2023-02-19T00:44:47.828Z,51.212326
2023-02-19T00:45:48.624Z,51.212280
2023-02-19T00:46:48.661Z,51.212234
2023-02-19T00:47:48.757Z,51.212265
2023-02-19T00:48:47.864Z,51.212269
2023-02-19T00:49:47.801Z,51.212280
2023-02-19T00:50:47.784Z,51.212238
2023-02-19T00:51:47.843Z,51.212227
2023-02-19T00:52:47.768Z,51.212265
2023-02-19T00:53:47.903Z,51.212280
2023-02-19T00:54:47.773Z,51.212299
2023-02-19T00:55:47.762Z,51.212234
2023-02-19T00:56:47.728Z,51.212231
2023-02-19T00:57:47.741Z,51.212173
2023-02-19T00:58:47.832Z,51.212234
2023-02-19T00:59:47.749Z,51.212292
2023-02-19T01:00:47.700Z,51.212322
2023-02-19T01:01:47.715Z,51.212189
2023-02-19T01:02:47.676Z,51.212143
2023-02-19T01:03:47.687Z,51.212132
2023-02-19T01:04:47.774Z,51.212196
2023-02-19T01:05:47.738Z,51.212204
2023-02-19T01:06:47.757Z,51.212173
2023-02-19T01:07:47.687Z,51.212212
2023-02-19T01:08:47.656Z,51.212147
2023-02-19T01:09:47.622Z,51.211994
2023-02-19T01:10:47.674Z,51.211964
2023-02-19T01:11:47.665Z,51.212158
2023-02-19T01:12:47.631Z,51.212124
2023-02-19T01:13:47.659Z,51.212132
2023-02-19T01:14:47.691Z,51.212097
2023-02-19T01:15:48.728Z,51.212154
2023-02-19T01:16:47.649Z,51.212238
2023-02-19T01:17:47.588Z,51.212257
2023-02-19T01:18:47.583Z,51.212257
2023-02-19T01:19:47.587Z,51.212250
2023-02-19T01:20:47.590Z,51.212215
2023-02-19T01:21:47.606Z,51.212177
2023-02-19T01:22:47.550Z,51.212154
2023-02-19T01:23:47.542Z,51.212315
2023-02-19T01:24:47.536Z,51.212227
2023-02-19T01:25:48.532Z,51.212292
2023-02-19T01:26:47.557Z,51.212227
2023-02-19T01:27:47.506Z,51.212204
2023-02-19T01:28:47.532Z,51.212177
2023-02-19T01:29:47.590Z,51.212238
2023-02-19T01:30:47.589Z,51.212242
2023-02-19T01:31:47.654Z,51.212158
2023-02-19T01:32:47.521Z,51.212273
2023-02-19T01:33:47.543Z,51.212257
2023-02-19T01:34:47.520Z,51.212288
2023-02-19T01:35:47.520Z,51.212299
2023-02-19T01:36:47.512Z,51.212284
2023-02-19T01:37:47.530Z,51.212265
2023-02-19T01:38:47.469Z,51.212250
2023-02-19T01:39:47.621Z,51.212257
2023-02-19T01:40:47.442Z,51.212223
2023-02-19T01:41:47.585Z,51.212219
2023-02-19T01:42:47.429Z,51.212307
2023-02-19T01:43:47.443Z,51.212181
2023-02-19T01:44:47.442Z,51.212151
2023-02-19T01:45:47.443Z,51.212135
2023-02-19T01:46:47.786Z,51.212151
2023-02-19T01:47:47.428Z,51.212170
2023-02-19T01:48:47.662Z,51.212185
2023-02-19T01:49:47.384Z,51.212143
2023-02-19T01:50:47.419Z,51.212170
2023-02-19T01:51:47.379Z,51.212151
2023-02-19T01:52:47.383Z,51.212135
2023-02-19T01:53:47.359Z,51.212139
2023-02-19T01:54:47.413Z,51.212139
2023-02-19T01:55:47.349Z,51.212101
2023-02-19T01:56:48.345Z,51.212017
2023-02-19T01:57:47.421Z,51.211979
2023-02-19T01:58:47.394Z,51.211964
2023-02-19T01:59:47.360Z,51.211845
2023-02-19T02:00:47.331Z,51.211899
2023-02-19T02:01:47.354Z,51.211945
2023-02-19T02:02:47.294Z,51.212112
2023-02-19T02:03:48.321Z,51.212196
2023-02-19T02:04:47.285Z,51.212158
2023-02-19T02:05:47.340Z,51.212051
2023-02-19T02:06:47.290Z,51.212021
2023-02-19T02:07:48.137Z,51.212055
2023-02-19T02:08:47.325Z,51.212128
2023-02-19T02:09:47.269Z,51.212147
2023-02-19T02:10:48.158Z,51.212082
2023-02-19T02:11:48.117Z,51.211979
2023-02-19T02:12:47.639Z,51.212059
2023-02-19T02:13:47.230Z,51.212009
2023-02-19T02:14:47.274Z,51.212021
2023-02-19T02:15:48.133Z,51.212124
2023-02-19T02:16:47.222Z,51.212029
2023-02-19T02:17:47.237Z,51.212132
2023-02-19T02:18:47.240Z,51.212082
2023-02-19T02:19:47.186Z,51.212124
2023-02-19T02:20:47.223Z,51.211933
2023-02-19T02:21:47.218Z,51.212021
2023-02-19T02:22:47.186Z,51.212055
2023-02-19T02:23:47.261Z,51.211994
2023-02-19T02:24:47.151Z,51.212021
2023-02-19T02:25:47.204Z,51.212063
2023-02-19T02:26:47.224Z,51.212063
2023-02-19T02:27:47.213Z,51.212124
2023-02-19T02:28:47.198Z,51.212055
2023-02-19T02:29:47.169Z,51.212063
2023-02-19T02:30:47.145Z,51.212025
2023-02-19T02:31:47.212Z,51.211926
2023-02-19T02:32:47.172Z,51.211948
2023-02-19T02:33:47.164Z,51.212051
2023-02-19T02:34:47.138Z,51.212250
2023-02-19T02:35:47.215Z,51.212227
2023-02-19T02:36:47.101Z,51.212307
2023-02-19T02:37:47.117Z,51.212269
2023-02-19T02:38:47.091Z,51.212212
2023-02-19T02:39:47.104Z,51.212154
2023-02-19T02:40:47.117Z,51.212132
2023-02-19T02:41:47.044Z,51.212337
2023-02-19T02:42:47.079Z,51.212242
2023-02-19T02:43:47.074Z,51.212349
2023-02-19T02:44:47.056Z,51.212296
2023-02-19T02:45:47.041Z,51.212223
2023-02-19T02:46:47.064Z,51.212288
2023-02-19T02:47:47.025Z,51.212315
2023-02-19T02:48:47.012Z,51.212311
2023-02-19T02:49:47.623Z,51.212303
2023-02-19T02:50:47.020Z,51.212055
2023-02-19T02:51:46.987Z,51.212177
2023-02-19T02:52:46.994Z,51.212261
2023-02-19T02:53:47.018Z,51.212189
2023-02-19T02:54:46.991Z,51.212059
2023-02-19T02:55:46.986Z,51.212215
2023-02-19T02:56:47.026Z,51.212219
2023-02-19T02:57:46.938Z,51.212166
2023-02-19T02:58:46.961Z,51.212238
2023-02-19T02:59:46.935Z,51.212063
2023-02-19T03:00:46.928Z,51.211998
2023-02-19T03:01:46.936Z,51.211987
2023-02-19T03:02:46.908Z,51.212074
2023-02-19T03:03:46.956Z,51.212101
2023-02-19T03:04:47.714Z,51.212070
2023-02-19T03:05:46.914Z,51.212086
2023-02-19T03:06:46.938Z,51.212032
2023-02-19T03:07:46.905Z,51.212097
2023-02-19T03:08:46.876Z,51.211990
2023-02-19T03:09:49.354Z,51.211933
2023-02-19T03:10:46.871Z,51.212051
2023-02-19T03:11:46.878Z,51.212128
2023-02-19T03:12:46.858Z,51.212158
2023-02-19T03:13:46.869Z,51.212086
2023-02-19T03:14:46.838Z,51.212086
2023-02-19T03:15:46.849Z,51.212139
2023-02-19T03:16:47.059Z,51.212093
2023-02-19T03:17:46.862Z,51.212128
2023-02-19T03:18:46.852Z,51.212238
2023-02-19T03:19:46.807Z,51.212200
2023-02-19T03:20:46.812Z,51.212273
2023-02-19T03:21:46.874Z,51.212154
2023-02-19T03:22:46.810Z,51.212193
2023-02-19T03:23:46.778Z,51.211960
2023-02-19T03:24:46.824Z,51.211983
2023-02-19T03:25:46.759Z,51.212078
2023-02-19T03:26:46.796Z,51.212112
2023-02-19T03:27:46.824Z,51.211937
2023-02-19T03:28:46.775Z,51.211876
2023-02-19T03:29:46.735Z,51.211880
2023-02-19T03:30:46.734Z,51.211990
2023-02-19T03:31:46.823Z,51.211964
2023-02-19T03:32:46.730Z,51.211895
2023-02-19T03:33:46.753Z,51.211784
2023-02-19T03:34:46.707Z,51.211765
2023-02-19T03:35:46.705Z,51.211964
2023-02-19T03:36:47.719Z,51.211971
2023-02-19T03:37:46.751Z,51.211922
2023-02-19T03:38:46.712Z,51.211941
2023-02-19T03:39:46.717Z,51.211998
2023-02-19T03:40:46.665Z,51.212090
2023-02-19T03:41:46.654Z,51.212044
2023-02-19T03:42:46.672Z,51.212078
2023-02-19T03:43:46.673Z,51.212055
2023-02-19T03:44:46.660Z,51.212078
2023-02-19T03:45:46.674Z,51.212006
2023-02-19T03:46:46.722Z,51.212021
2023-02-19T03:47:46.705Z,51.212063
2023-02-19T03:48:46.664Z,51.211834
2023-02-19T03:49:48.925Z,51.211872
2023-02-19T03:50:47.602Z,51.211914
2023-02-19T03:51:46.624Z,51.211979
2023-02-19T03:52:46.614Z,51.212006
2023-02-19T03:53:46.608Z,51.212021
2023-02-19T03:54:46.591Z,51.212017
2023-02-19T03:55:46.591Z,51.211994
2023-02-19T03:56:46.578Z,51.212097
2023-02-19T03:57:46.592Z,51.212132
2023-02-19T03:58:48.128Z,51.212250
2023-02-19T03:59:46.548Z,51.212399
2023-02-19T04:00:46.552Z,51.212418
2023-02-19T04:01:46.636Z,51.212467
2023-02-19T04:02:46.533Z,51.212448
2023-02-19T04:03:46.529Z,51.212074
2023-02-19T04:04:46.558Z,51.212074
2023-02-19T04:05:46.573Z,51.212105
2023-02-19T04:06:46.569Z,51.212177
2023-02-19T04:07:46.526Z,51.212322
2023-02-19T04:08:46.525Z,51.212379
2023-02-19T04:09:46.510Z,51.212196
2023-02-19T04:10:46.501Z,51.212143
2023-02-19T04:11:46.478Z,51.212177
2023-02-19T04:12:47.133Z,51.212124
2023-02-19T04:13:46.469Z,51.212086
2023-02-19T04:14:46.499Z,51.212105
2023-02-19T04:15:46.515Z,51.212067
2023-02-19T04:16:46.552Z,51.212078
2023-02-19T04:17:46.433Z,51.212074
2023-02-19T04:18:46.478Z,51.212044
2023-02-19T04:19:46.414Z,51.212032
2023-02-19T04:20:46.420Z,51.212204
2023-02-19T04:21:46.426Z,51.212143
2023-02-19T04:22:46.430Z,51.212170
2023-02-19T04:23:46.418Z,51.212212
2023-02-19T04:24:46.387Z,51.212132
2023-02-19T04:25:46.413Z,51.212032
2023-02-19T04:26:46.557Z,51.212017
2023-02-19T04:27:46.381Z,51.212021
2023-02-19T04:28:46.385Z,51.211998
2023-02-19T04:29:46.380Z,51.211967
2023-02-19T04:30:46.402Z,51.211926
2023-02-19T04:31:46.457Z,51.211864
2023-02-19T04:32:46.358Z,51.211887
2023-02-19T04:33:46.396Z,51.211845
2023-02-19T04:34:46.350Z,51.211876
2023-02-19T04:35:46.333Z,51.211845
2023-02-19T04:36:46.312Z,51.211929
2023-02-19T04:37:46.449Z,51.211952
2023-02-19T04:38:46.305Z,51.211922
2023-02-19T04:39:46.389Z,51.212048
2023-02-19T04:40:47.227Z,51.212212
2023-02-19T04:41:46.283Z,51.212128
2023-02-19T04:42:46.344Z,51.212082
2023-02-19T04:43:47.149Z,51.212116
2023-02-19T04:44:46.365Z,51.212139
2023-02-19T04:45:46.281Z,51.212101
2023-02-19T04:46:46.266Z,51.212067
2023-02-19T04:47:46.270Z,51.212101
2023-02-19T04:48:47.175Z,51.212097
2023-02-19T04:49:46.335Z,51.212143
2023-02-19T04:50:46.257Z,51.212132
2023-02-19T04:51:46.220Z,51.212204
2023-02-19T04:52:46.252Z,51.212070
2023-02-19T04:53:46.215Z,51.212200
2023-02-19T04:54:46.240Z,51.212170
2023-02-19T04:55:46.207Z,51.212135
2023-02-19T04:56:46.214Z,51.212135
2023-02-19T04:57:46.227Z,51.211960
2023-02-19T04:58:47.148Z,51.211926
2023-02-19T04:59:46.190Z,51.212048
2023-02-19T05:00:46.239Z,51.212151
2023-02-19T05:01:46.248Z,51.212246
2023-02-19T05:02:46.190Z,51.212162
2023-02-19T05:03:46.183Z,51.212128
2023-02-19T05:04:46.171Z,51.212048
2023-02-19T05:05:47.179Z,51.212173
2023-02-19T05:06:46.206Z,51.212021
2023-02-19T05:07:46.139Z,51.212078
2023-02-19T05:08:46.203Z,51.212151
2023-02-19T05:09:46.154Z,51.212109
2023-02-19T05:10:47.182Z,51.212009
2023-02-19T05:11:46.145Z,51.212170
2023-02-19T05:12:46.163Z,51.212227
2023-02-19T05:13:46.145Z,51.212292
2023-02-19T05:14:46.084Z,51.212276
2023-02-19T05:15:46.213Z,51.212181
2023-02-19T05:16:46.060Z,51.212097
2023-02-19T05:17:46.157Z,51.212093
2023-02-19T05:18:46.135Z,51.212086
2023-02-19T05:19:46.051Z,51.212135
2023-02-19T05:20:46.093Z,51.212097
2023-02-19T05:21:46.085Z,51.212109
2023-02-19T05:22:46.040Z,51.212158
2023-02-19T05:23:46.022Z,51.212246
2023-02-19T05:24:46.701Z,51.212029
2023-02-19T05:25:46.047Z,51.212074
2023-02-19T05:26:46.067Z,51.211967
2023-02-19T05:27:46.019Z,51.212112
2023-02-19T05:28:46.001Z,51.212090
2023-02-19T05:29:45.979Z,51.212185
2023-02-19T05:30:46.047Z,51.212112
2023-02-19T05:31:46.054Z,51.212067
2023-02-19T05:32:45.957Z,51.212185
2023-02-19T05:33:45.943Z,51.212128
2023-02-19T05:34:45.956Z,51.212120
2023-02-19T05:35:45.960Z,51.212112
2023-02-19T05:36:45.964Z,51.212257
2023-02-19T05:37:46.000Z,51.212185
2023-02-19T05:38:46.185Z,51.212109
2023-02-19T05:39:45.922Z,51.212086
2023-02-19T05:40:45.953Z,51.212059
2023-02-19T05:41:45.944Z,51.212116
2023-02-19T05:42:45.948Z,51.212143
2023-02-19T05:43:45.913Z,51.212006
2023-02-19T05:44:45.934Z,51.211994
2023-02-19T05:45:45.906Z,51.212078
2023-02-19T05:46:45.941Z,51.211994
2023-02-19T05:47:45.902Z,51.212006
2023-02-19T05:48:45.862Z,51.212078
2023-02-19T05:49:45.849Z,51.212021
2023-02-19T05:50:45.854Z,51.211952
2023-02-19T05:51:45.845Z,51.211823
2023-02-19T05:52:45.882Z,51.211868
2023-02-19T05:53:45.829Z,51.211845
2023-02-19T05:54:45.843Z,51.211666
2023-02-19T05:55:45.934Z,51.211929
2023-02-19T05:56:45.909Z,51.212002
2023-02-19T05:57:45.830Z,51.211884
2023-02-19T05:58:45.849Z,51.211918
2023-02-19T05:59:45.881Z,51.212032
2023-02-19T06:00:45.868Z,51.211967
2023-02-19T06:01:45.830Z,51.212051
2023-02-19T06:02:45.837Z,51.212044
2023-02-19T06:03:45.867Z,51.211964
2023-02-19T06:04:45.815Z,51.211956
2023-02-19T06:05:45.784Z,51.211929
2023-02-19T06:06:45.771Z,51.212063
2023-02-19T06:07:45.771Z,51.211975
2023-02-19T06:08:45.752Z,51.211948
2023-02-19T06:09:45.795Z,51.211983
2023-02-19T06:10:45.739Z,51.211906
2023-02-19T06:11:45.760Z,51.212166
2023-02-19T06:12:45.716Z,51.212086
2023-02-19T06:13:45.735Z,51.212002
2023-02-19T06:14:45.711Z,51.212006
2023-02-19T06:15:45.751Z,51.212044
2023-02-19T06:16:46.650Z,51.211922
2023-02-19T06:17:45.708Z,51.211853
2023-02-19T06:18:45.671Z,51.211910
2023-02-19T06:19:45.721Z,51.211983
2023-02-19T06:20:45.694Z,51.212074
2023-02-19T06:21:45.714Z,51.212086
2023-02-19T06:22:45.723Z,51.212132
2023-02-19T06:23:45.672Z,51.212082
2023-02-19T06:24:45.688Z,51.212135
2023-02-19T06:25:45.719Z,51.212097
2023-02-19T06:26:45.651Z,51.212074
2023-02-19T06:27:45.636Z,51.212021
2023-02-19T06:28:45.615Z,51.212006
2023-02-19T06:29:45.660Z,51.211994
2023-02-19T06:30:45.638Z,51.212509
2023-02-19T06:31:48.240Z,51.212200
2023-02-19T06:32:48.625Z,51.212055
2023-02-19T06:33:47.623Z,51.211929
2023-02-19T06:34:45.588Z,51.211929
2023-02-19T06:35:45.603Z,51.211864
2023-02-19T06:36:48.869Z,51.211864
2023-02-19T06:37:47.193Z,51.211987
2023-02-19T06:38:46.150Z,51.212132
2023-02-19T06:39:47.756Z,51.212196
2023-02-19T06:40:45.579Z,51.212242
2023-02-19T06:41:45.537Z,51.212055
2023-02-19T06:42:48.510Z,51.212025
2023-02-19T06:43:46.199Z,51.211647
2023-02-19T06:44:45.598Z,51.211754
2023-02-19T06:45:46.739Z,51.212040
2023-02-19T06:46:45.523Z,51.212009
2023-02-19T06:47:46.694Z,51.211784
2023-02-19T06:48:45.489Z,51.211761
2023-02-19T06:49:45.495Z,51.211906
2023-02-19T06:50:45.643Z,51.212151
2023-02-19T06:51:45.482Z,51.212101
2023-02-19T06:52:46.575Z,51.211956
2023-02-19T06:53:45.667Z,51.211903
2023-02-19T06:54:45.634Z,51.211941
2023-02-19T06:55:47.834Z,51.211933
2023-02-19T06:56:47.083Z,51.211884
2023-02-19T06:57:46.531Z,51.211914
2023-02-19T06:58:45.446Z,51.211960
2023-02-19T06:59:45.469Z,51.211956
2023-02-19T07:00:45.452Z,51.211987
2023-02-19T07:01:46.256Z,51.212128
2023-02-19T07:02:46.326Z,51.212166
2023-02-19T07:03:45.644Z,51.212109
2023-02-19T07:04:45.393Z,51.212078
2023-02-19T07:05:45.423Z,51.212109
2023-02-19T07:06:45.367Z,51.212154
2023-02-19T07:07:46.180Z,51.212170
2023-02-19T07:08:45.420Z,51.212234
2023-02-19T07:09:45.446Z,51.212200
2023-02-19T07:10:46.112Z,51.212181
2023-02-19T07:11:46.671Z,51.212151
2023-02-19T07:12:47.222Z,51.212078
2023-02-19T07:13:45.342Z,51.212093
2023-02-19T07:14:45.317Z,51.212009
2023-02-19T07:15:45.460Z,51.212017
2023-02-19T07:16:46.131Z,51.212112
2023-02-19T07:17:47.127Z,51.212055
2023-02-19T07:18:45.299Z,51.212112
2023-02-19T07:19:45.312Z,51.212128
2023-02-19T07:20:45.286Z,51.212078
2023-02-19T07:21:49.263Z,51.212006
2023-02-19T07:22:46.388Z,51.211998
2023-02-19T07:23:45.578Z,51.212025
2023-02-19T07:24:47.811Z,51.212078
2023-02-19T07:25:45.257Z,51.212055
2023-02-19T07:26:45.229Z,51.211937
2023-02-19T07:27:45.268Z,51.212040
2023-02-19T07:28:45.338Z,51.212158
2023-02-19T07:29:46.250Z,51.212132
2023-02-19T07:30:45.320Z,51.212196
2023-02-19T07:31:45.217Z,51.212101
2023-02-19T07:32:45.201Z,51.212078
2023-02-19T07:33:45.222Z,51.212048
2023-02-19T07:34:45.189Z,51.212055
2023-02-19T07:35:45.233Z,51.212070
2023-02-19T07:36:45.181Z,51.212067
2023-02-19T07:37:45.201Z,51.212090
2023-02-19T07:38:46.394Z,51.212128
2023-02-19T07:39:45.157Z,51.212151
2023-02-19T07:40:45.312Z,51.212135
2023-02-19T07:41:45.176Z,51.212196
2023-02-19T07:42:45.146Z,51.212212
2023-02-19T07:43:45.151Z,51.212063
2023-02-19T07:44:45.140Z,51.212193
2023-02-19T07:45:45.242Z,51.212173
2023-02-19T07:46:45.354Z,51.212143
2023-02-19T07:47:45.657Z,51.212090
2023-02-19T07:48:45.121Z,51.212196
2023-02-19T07:49:45.123Z,51.212261
2023-02-19T07:50:45.085Z,51.212112
2023-02-19T07:51:45.157Z,51.212196
2023-02-19T07:52:45.093Z,51.212227
2023-02-19T07:53:45.070Z,51.212204
2023-02-19T07:54:45.100Z,51.212227
2023-02-19T07:55:45.084Z,51.212173
2023-02-19T07:56:45.058Z,51.212284
2023-02-19T07:57:45.065Z,51.212318
2023-02-19T07:58:45.087Z,51.212162
2023-02-19T07:59:45.036Z,51.212124
2023-02-19T08:00:45.048Z,51.212086
2023-02-19T08:01:45.074Z,51.212387
2023-02-19T08:02:45.030Z,51.212284
2023-02-19T08:03:45.012Z,51.212147
2023-02-19T08:04:45.039Z,51.211971
2023-02-19T08:05:45.019Z,51.211941
2023-02-19T08:06:45.013Z,51.212208
2023-02-19T08:07:44.992Z,51.212143
2023-02-19T08:08:45.001Z,51.212181
2023-02-19T08:09:44.977Z,51.212158
2023-02-19T08:10:44.956Z,51.212006
2023-02-19T08:11:44.989Z,51.212147
2023-02-19T08:12:44.953Z,51.212284
2023-02-19T08:13:44.957Z,51.212193
2023-02-19T08:14:45.020Z,51.212193
2023-02-19T08:15:44.933Z,51.212296
2023-02-19T08:16:44.959Z,51.212162
2023-02-19T08:17:44.919Z,51.212273
2023-02-19T08:18:44.917Z,51.212185
2023-02-19T08:19:44.926Z,51.212246
2023-02-19T08:20:44.899Z,51.212353
2023-02-19T08:21:44.880Z,51.212250
2023-02-19T08:22:45.293Z,51.212280
2023-02-19T08:23:44.864Z,51.212288
2023-02-19T08:24:44.890Z,51.212322
2023-02-19T08:25:45.066Z,51.212181
2023-02-19T08:26:44.859Z,51.212200
2023-02-19T08:27:44.854Z,51.212326
2023-02-19T08:28:44.897Z,51.212322
2023-02-19T08:29:44.838Z,51.212311
2023-02-19T08:30:44.925Z,51.212234
2023-02-19T08:31:44.924Z,51.212170
2023-02-19T08:32:44.827Z,51.212093
2023-02-19T08:33:44.815Z,51.212109
2023-02-19T08:34:44.828Z,51.211937
2023-02-19T08:35:44.836Z,51.211964
2023-02-19T08:36:44.792Z,51.212013
2023-02-19T08:37:44.854Z,51.211918
2023-02-19T08:38:44.802Z,51.212227
2023-02-19T08:39:44.769Z,51.212364
2023-02-19T08:40:44.792Z,51.212227
2023-02-19T08:41:44.761Z,51.211918
2023-02-19T08:42:44.761Z,51.212032
2023-02-19T08:43:44.777Z,51.212006
2023-02-19T08:44:44.744Z,51.212082
2023-02-19T08:45:44.736Z,51.211979
2023-02-19T08:46:44.770Z,51.211937
2023-02-19T08:47:44.734Z,51.211956
2023-02-19T08:48:44.703Z,51.211952
2023-02-19T08:49:44.755Z,51.211834
2023-02-19T08:50:44.700Z,51.212143
2023-02-19T08:51:44.690Z,51.212124
2023-02-19T08:52:44.682Z,51.211796
2023-02-19T08:53:44.703Z,51.212078
2023-02-19T08:54:44.658Z,51.211956
2023-02-19T08:55:44.679Z,51.211956
2023-02-19T08:56:44.664Z,51.211845
2023-02-19T08:57:44.636Z,51.212185
2023-02-19T08:58:44.656Z,51.212109
2023-02-19T08:59:44.642Z,51.211937
2023-02-19T09:00:44.629Z,51.212063
2023-02-19T09:01:44.739Z,51.212101
2023-02-19T09:02:44.599Z,51.212025
2023-02-19T09:03:44.684Z,51.212048
2023-02-19T09:04:44.631Z,51.212006
2023-02-19T09:05:44.586Z,51.212070
2023-02-19T09:06:44.578Z,51.212101
2023-02-19T09:07:44.600Z,51.211960
2023-02-19T09:08:45.232Z,51.212177
2023-02-19T09:09:44.562Z,51.212040
2023-02-19T09:10:45.660Z,51.212078
2023-02-19T09:11:44.575Z,51.211987
2023-02-19T09:12:44.681Z,51.212017
2023-02-19T09:13:44.573Z,51.211987
2023-02-19T09:14:45.116Z,51.211994
2023-02-19T09:15:44.548Z,51.211868
2023-02-19T09:16:44.561Z,51.212105
2023-02-19T09:18:04.043Z,51.212269
2023-02-19T09:18:44.500Z,51.212013
2023-02-19T09:19:44.519Z,51.211983
2023-02-19T09:20:44.481Z,51.212139
2023-02-19T09:21:44.497Z,51.212147
2023-02-19T09:22:44.491Z,51.212177
2023-02-19T09:23:44.471Z,51.212212
2023-02-19T09:24:44.496Z,51.212067
2023-02-19T09:25:44.568Z,51.212048
2023-02-19T09:26:44.717Z,51.211834
2023-02-19T09:27:44.453Z,51.212078
2023-02-19T09:28:44.449Z,51.212074
2023-02-19T09:29:44.634Z,51.212059
2023-02-19T09:30:44.472Z,51.212070
2023-02-19T09:31:45.341Z,51.212070
2023-02-19T09:32:44.482Z,51.212097
2023-02-19T09:33:44.433Z,51.212166
2023-02-19T09:34:44.391Z,51.212204
2023-02-19T09:35:44.513Z,51.212162
2023-02-19T09:36:44.419Z,51.212139
2023-02-19T09:37:44.412Z,51.212090
2023-02-19T09:38:44.389Z,51.212135
2023-02-19T09:39:44.357Z,51.212135
2023-02-19T09:40:44.443Z,51.212440
2023-02-19T09:41:44.359Z,51.212254
2023-02-19T09:42:44.350Z,51.212189
2023-02-19T09:43:44.406Z,51.212086
2023-02-19T09:44:44.339Z,51.212097
2023-02-19T09:45:44.336Z,51.212128
2023-02-19T09:46:44.322Z,51.212070
2023-02-19T09:47:44.318Z,51.212032
2023-02-19T09:48:45.694Z,51.212009
2023-02-19T09:49:44.296Z,51.212078
2023-02-19T09:50:45.380Z,51.212070
2023-02-19T09:51:44.285Z,51.212181
2023-02-19T09:52:44.359Z,51.212170
2023-02-19T09:53:44.283Z,51.212273
2023-02-19T09:54:45.506Z,51.212246
2023-02-19T09:55:45.036Z,51.212208
2023-02-19T09:56:44.275Z,51.212280
2023-02-19T09:57:44.275Z,51.212223
2023-02-19T09:58:44.310Z,51.212135
2023-02-19T09:59:44.237Z,51.212097
2023-02-19T10:00:44.231Z,51.212162
2023-02-19T10:01:44.234Z,51.212284
2023-02-19T10:02:44.207Z,51.212246
2023-02-19T10:03:44.655Z,51.212189
2023-02-19T10:04:44.301Z,51.212193
2023-02-19T10:05:45.078Z,51.212212
2023-02-19T10:06:44.189Z,51.212208
2023-02-19T10:07:44.239Z,51.212173
2023-02-19T10:08:45.643Z,51.212173
2023-02-19T10:09:45.165Z,51.212109
2023-02-19T10:10:44.180Z,51.212055
2023-02-19T10:11:44.149Z,51.212143
2023-02-19T10:12:44.150Z,51.212109
2023-02-19T10:13:44.171Z,51.212051
2023-02-19T10:14:44.147Z,51.212063
2023-02-19T10:15:44.214Z,51.212215
2023-02-19T10:16:44.137Z,51.212147
2023-02-19T10:17:44.360Z,51.212143
2023-02-19T10:18:44.113Z,51.212112
2023-02-19T10:19:44.112Z,51.212109
2023-02-19T10:20:44.113Z,51.212040
2023-02-19T10:21:44.155Z,51.212105
2023-02-19T10:22:44.092Z,51.212036
2023-02-19T10:23:45.099Z,51.211964
2023-02-19T10:24:44.086Z,51.212067
2023-02-19T10:25:44.099Z,51.211948
2023-02-19T10:26:44.089Z,51.212036
2023-02-19T10:27:44.172Z,51.212162
2023-02-19T10:28:44.060Z,51.212090
2023-02-19T10:29:44.054Z,51.212051
2023-02-19T10:30:44.073Z,51.212101
2023-02-19T10:31:44.328Z,51.212151
2023-02-19T10:32:44.025Z,51.212135
2023-02-19T10:33:44.029Z,51.212200
2023-02-19T10:34:44.013Z,51.212322
2023-02-19T10:35:44.011Z,51.212246
2023-02-19T10:36:44.152Z,51.212105
2023-02-19T10:37:44.031Z,51.211906
2023-02-19T10:38:44.663Z,51.211952
2023-02-19T10:39:44.115Z,51.212082
2023-02-19T10:40:43.986Z,51.212151
2023-02-19T10:41:44.456Z,51.212208
2023-02-19T10:42:44.967Z,51.212177
2023-02-19T10:43:43.980Z,51.212025
2023-02-19T10:44:43.958Z,51.212029
2023-02-19T10:45:43.947Z,51.212009
2023-02-19T10:46:43.986Z,51.211983
2023-02-19T10:47:44.027Z,51.212059
2023-02-19T10:48:43.989Z,51.212143
2023-02-19T10:49:43.977Z,51.212147
2023-02-19T10:50:43.962Z,51.212055
2023-02-19T10:51:44.889Z,51.212074
2023-02-19T10:52:43.901Z,51.212074
2023-02-19T10:53:43.891Z,51.212070
2023-02-19T10:54:43.904Z,51.212074
2023-02-19T10:55:43.929Z,51.212170
2023-02-19T10:56:43.895Z,51.212109
2023-02-19T10:57:43.869Z,51.212059
2023-02-19T10:58:43.883Z,51.212017
2023-02-19T10:59:46.234Z,51.211994
2023-02-19T11:00:44.673Z,51.212032
2023-02-19T11:01:43.911Z,51.212029
2023-02-19T11:02:43.844Z,51.212021
2023-02-19T11:03:43.842Z,51.211948
2023-02-19T11:04:43.864Z,51.212181
2023-02-19T11:05:43.814Z,51.211945
2023-02-19T11:06:43.831Z,51.212097
2023-02-19T11:07:43.804Z,51.212135
2023-02-19T11:08:43.797Z,51.211914
2023-02-19T11:09:43.802Z,51.211884
2023-02-19T11:10:43.837Z,51.212009
2023-02-19T11:11:43.785Z,51.212040
2023-02-19T11:12:43.759Z,51.212055
2023-02-19T11:13:44.020Z,51.211956
2023-02-19T11:14:44.139Z,51.212017
2023-02-19T11:15:43.774Z,51.212223
2023-02-19T11:16:43.844Z,51.212132
2023-02-19T11:17:43.747Z,51.212070
2023-02-19T11:18:43.739Z,51.212234
2023-02-19T11:19:43.811Z,51.211952
2023-02-19T11:20:43.743Z,51.211769
2023-02-19T11:21:43.716Z,51.211605
2023-02-19T11:22:43.702Z,51.211948
2023-02-19T11:23:43.700Z,51.212063
2023-02-19T11:24:43.696Z,51.211967